sensor_id;sensor_type;location;lat;lon;timestamp;pressure;altitude;pressure_sealevel;temperature;humidity
17438;BME280;70275;52.198;5.422;2023-07-13T00:01:38;101218.09;;;17.90;67.64
17438;BME280;70275;52.198;5.422;2023-07-13T00:04:07;101221.13;;;17.79;68.15
17438;BME280;70275;52.198;5.422;2023-07-13T00:06:36;101224.31;;;17.74;68.54
17438;BME280;70275;52.198;5.422;2023-07-13T00:09:05;101224.28;;;17.82;68.03
17438;BME280;70275;52.198;5.422;2023-07-13T00:11:36;101224.28;;;17.58;69.05
17438;BME280;70275;52.198;5.422;2023-07-13T00:14:05;101224.22;;;17.42;69.92
17438;BME280;70275;52.198;5.422;2023-07-13T00:16:38;101224.38;;;17.41;69.73
17438;BME280;70275;52.198;5.422;2023-07-13T00:19:10;101227.22;;;17.47;69.32
17438;BME280;70275;52.198;5.422;2023-07-13T00:21:41;101234.94;;;17.42;70.10
17438;BME280;70275;52.198;5.422;2023-07-13T00:24:14;101231.13;;;17.53;69.78
17438;BME280;70275;52.198;5.422;2023-07-13T00:26:48;101227.13;;;17.57;69.69
17438;BME280;70275;52.198;5.422;2023-07-13T00:29:17;101221.69;;;17.41;69.84
17438;BME280;70275;52.198;5.422;2023-07-13T00:31:49;101217.69;;;17.36;70.00
17438;BME280;70275;52.198;5.422;2023-07-13T00:34:19;101227.72;;;17.34;70.18
17438;BME280;70275;52.198;5.422;2023-07-13T00:36:48;101231.25;;;17.35;70.34
17438;BME280;70275;52.198;5.422;2023-07-13T00:39:17;101224.50;;;17.31;70.16
17438;BME280;70275;52.198;5.422;2023-07-13T00:41:47;101225.84;;;17.27;70.41
17438;BME280;70275;52.198;5.422;2023-07-13T00:44:18;101224.16;;;17.18;70.21
17438;BME280;70275;52.198;5.422;2023-07-13T00:46:51;101221.97;;;17.21;70.33
17438;BME280;70275;52.198;5.422;2023-07-13T00:49:25;101221.84;;;17.23;69.87
17438;BME280;70275;52.198;5.422;2023-07-13T00:51:58;101221.16;;;17.21;70.19
17438;BME280;70275;52.198;5.422;2023-07-13T00:54:33;101224.66;;;17.13;69.76
17438;BME280;70275;52.198;5.422;2023-07-13T00:57:09;101221.25;;;17.03;70.12
17438;BME280;70275;52.198;5.422;2023-07-13T00:59:42;101226.28;;;17.06;70.30
17438;BME280;70275;52.198;5.422;2023-07-13T01:02:17;101226.47;;;17.05;70.38
17438;BME280;70275;52.198;5.422;2023-07-13T01:04:47;101224.91;;;16.94;70.58
17438;BME280;70275;52.198;5.422;2023-07-13T01:07:18;101219.53;;;16.86;70.66
17438;BME280;70275;52.198;5.422;2023-07-13T01:09:47;101221.72;;;16.91;70.50
17438;BME280;70275;52.198;5.422;2023-07-13T01:12:17;101227.03;;;16.83;70.60
17438;BME280;70275;52.198;5.422;2023-07-13T01:14:46;101235.34;;;16.72;71.45
17438;BME280;70275;52.198;5.422;2023-07-13T01:17:18;101231.13;;;16.69;71.16
17438;BME280;70275;52.198;5.422;2023-07-13T01:19:48;101227.59;;;16.60;71.31
17438;BME280;70275;52.198;5.422;2023-07-13T01:22:20;101228.25;;;16.62;71.03
17438;BME280;70275;52.198;5.422;2023-07-13T01:24:54;101236.47;;;16.61;71.13
17438;BME280;70275;52.198;5.422;2023-07-13T01:27:25;101234.16;;;16.48;71.68
17438;BME280;70275;52.198;5.422;2023-07-13T01:29:54;101233.56;;;16.54;71.58
17438;BME280;70275;52.198;5.422;2023-07-13T01:32:28;101241.94;;;16.59;71.40
17438;BME280;70275;52.198;5.422;2023-07-13T01:34:58;101244.03;;;16.48;71.55
17438;BME280;70275;52.198;5.422;2023-07-13T01:37:30;101236.78;;;16.40;71.80
17438;BME280;70275;52.198;5.422;2023-07-13T01:40:02;101240.06;;;16.52;71.93
17438;BME280;70275;52.198;5.422;2023-07-13T01:42:31;101229.81;;;16.47;71.88
17438;BME280;70275;52.198;5.422;2023-07-13T01:45:00;101233.41;;;16.38;72.04
17438;BME280;70275;52.198;5.422;2023-07-13T01:47:30;101232.91;;;16.35;72.52
17438;BME280;70275;52.198;5.422;2023-07-13T01:49:59;101240.25;;;16.33;72.50
17438;BME280;70275;52.198;5.422;2023-07-13T01:52:31;101225.59;;;16.19;72.79
17438;BME280;70275;52.198;5.422;2023-07-13T01:55:00;101244.13;;;16.38;72.81
17438;BME280;70275;52.198;5.422;2023-07-13T01:57:29;101239.03;;;16.27;73.19
17438;BME280;70275;52.198;5.422;2023-07-13T01:59:59;101240.03;;;16.26;73.24
17438;BME280;70275;52.198;5.422;2023-07-13T02:02:28;101244.09;;;16.30;73.59
17438;BME280;70275;52.198;5.422;2023-07-13T02:04:58;101228.34;;;16.27;73.40
17438;BME280;70275;52.198;5.422;2023-07-13T02:07:29;101233.00;;;16.25;73.58
17438;BME280;70275;52.198;5.422;2023-07-13T02:09:59;101239.72;;;16.29;73.56
17438;BME280;70275;52.198;5.422;2023-07-13T02:12:28;101244.13;;;16.38;73.27
17438;BME280;70275;52.198;5.422;2023-07-13T02:14:57;101250.16;;;16.40;73.15
17438;BME280;70275;52.198;5.422;2023-07-13T02:17:27;101248.00;;;16.18;74.15
17438;BME280;70275;52.198;5.422;2023-07-13T02:19:56;101248.94;;;16.09;74.60
17438;BME280;70275;52.198;5.422;2023-07-13T02:22:26;101250.16;;;15.97;74.77
17438;BME280;70275;52.198;5.422;2023-07-13T02:24:58;101253.00;;;15.95;75.00
17438;BME280;70275;52.198;5.422;2023-07-13T02:27:27;101246.66;;;15.79;75.18
17438;BME280;70275;52.198;5.422;2023-07-13T02:29:56;101239.41;;;15.71;75.62
17438;BME280;70275;52.198;5.422;2023-07-13T02:32:26;101249.03;;;15.82;75.32
17438;BME280;70275;52.198;5.422;2023-07-13T02:34:55;101235.97;;;15.79;74.99
17438;BME280;70275;52.198;5.422;2023-07-13T02:37:24;101251.09;;;15.88;75.28
17438;BME280;70275;52.198;5.422;2023-07-13T02:39:53;101247.81;;;15.76;75.65
17438;BME280;70275;52.198;5.422;2023-07-13T02:42:25;101246.97;;;15.76;75.80
17438;BME280;70275;52.198;5.422;2023-07-13T02:44:55;101256.28;;;15.72;76.10
17438;BME280;70275;52.198;5.422;2023-07-13T02:47:24;101251.00;;;15.80;76.05
17438;BME280;70275;52.198;5.422;2023-07-13T02:49:53;101255.44;;;15.71;76.41
17438;BME280;70275;52.198;5.422;2023-07-13T02:52:22;101254.59;;;15.71;76.57
17438;BME280;70275;52.198;5.422;2023-07-13T02:54:52;101249.88;;;15.65;76.97
17438;BME280;70275;52.198;5.422;2023-07-13T02:57:21;101242.91;;;15.54;77.60
17438;BME280;70275;52.198;5.422;2023-07-13T02:59:53;101249.69;;;15.49;77.85
17438;BME280;70275;52.198;5.422;2023-07-13T03:02:22;101249.69;;;15.49;78.15
17438;BME280;70275;52.198;5.422;2023-07-13T03:04:54;101256.97;;;15.56;78.23
17438;BME280;70275;52.198;5.422;2023-07-13T03:07:24;101251.38;;;15.50;78.36
17438;BME280;70275;52.198;5.422;2023-07-13T03:09:55;101247.81;;;15.59;78.30
17438;BME280;70275;52.198;5.422;2023-07-13T03:12:25;101259.47;;;15.58;78.44
17438;BME280;70275;52.198;5.422;2023-07-13T03:14:58;101257.88;;;15.65;78.21
17438;BME280;70275;52.198;5.422;2023-07-13T03:17:27;101262.59;;;15.53;78.60
17438;BME280;70275;52.198;5.422;2023-07-13T03:19:56;101263.13;;;15.57;79.05
17438;BME280;70275;52.198;5.422;2023-07-13T03:22:25;101257.31;;;15.61;79.00
17438;BME280;70275;52.198;5.422;2023-07-13T03:24:56;101261.47;;;15.56;78.82
17438;BME280;70275;52.198;5.422;2023-07-13T03:27:25;101256.34;;;15.62;79.23
17438;BME280;70275;52.198;5.422;2023-07-13T03:29:57;101256.06;;;15.65;78.82
17438;BME280;70275;52.198;5.422;2023-07-13T03:32:26;101271.53;;;15.62;79.12
17438;BME280;70275;52.198;5.422;2023-07-13T03:34:55;101261.25;;;15.67;79.40
17438;BME280;70275;52.198;5.422;2023-07-13T03:37:25;101265.78;;;15.57;79.26
17438;BME280;70275;52.198;5.422;2023-07-13T03:39:54;101276.50;;;15.74;78.89
17438;BME280;70275;52.198;5.422;2023-07-13T03:42:24;101287.28;;;15.65;79.15
17438;BME280;70275;52.198;5.422;2023-07-13T03:44:55;101290.84;;;15.73;79.38
17438;BME280;70275;52.198;5.422;2023-07-13T03:47:25;101292.00;;;15.71;79.26
17438;BME280;70275;52.198;5.422;2023-07-13T03:49:54;101294.66;;;15.71;79.40
17438;BME280;70275;52.198;5.422;2023-07-13T03:52:23;101288.25;;;15.64;79.04
17438;BME280;70275;52.198;5.422;2023-07-13T03:54:53;101285.56;;;15.64;78.76
17438;BME280;70275;52.198;5.422;2023-07-13T03:57:22;101289.66;;;15.68;78.83
17438;BME280;70275;52.198;5.422;2023-07-13T03:59:51;101289.50;;;15.69;78.94
17438;BME280;70275;52.198;5.422;2023-07-13T04:02:23;101289.31;;;15.53;79.37
17438;BME280;70275;52.198;5.422;2023-07-13T04:04:52;101296.03;;;15.57;78.97
17438;BME280;70275;52.198;5.422;2023-07-13T04:07:22;101301.75;;;15.45;79.58
17438;BME280;70275;52.198;5.422;2023-07-13T04:09:51;101303.41;;;15.46;79.48
17438;BME280;70275;52.198;5.422;2023-07-13T04:12:21;101308.00;;;15.53;79.29
17438;BME280;70275;52.198;5.422;2023-07-13T04:14:50;101311.13;;;15.49;79.67
17438;BME280;70275;52.198;5.422;2023-07-13T04:17:23;101308.03;;;15.44;79.93
17438;BME280;70275;52.198;5.422;2023-07-13T04:19:52;101296.66;;;15.42;79.75
17438;BME280;70275;52.198;5.422;2023-07-13T04:22:21;101309.84;;;15.53;80.07
17438;BME280;70275;52.198;5.422;2023-07-13T04:24:50;101309.56;;;15.56;80.22
17438;BME280;70275;52.198;5.422;2023-07-13T04:27:20;101314.34;;;15.43;80.15
17438;BME280;70275;52.198;5.422;2023-07-13T04:29:49;101316.88;;;15.54;80.71
17438;BME280;70275;52.198;5.422;2023-07-13T04:32:18;101314.88;;;15.56;80.56
17438;BME280;70275;52.198;5.422;2023-07-13T04:34:50;101319.63;;;15.62;80.29
17438;BME280;70275;52.198;5.422;2023-07-13T04:37:21;101323.78;;;15.74;80.04
17438;BME280;70275;52.198;5.422;2023-07-13T04:39:51;101315.47;;;15.77;80.00
17438;BME280;70275;52.198;5.422;2023-07-13T04:42:20;101321.59;;;15.60;80.57
17438;BME280;70275;52.198;5.422;2023-07-13T04:44:50;101326.34;;;15.66;80.46
17438;BME280;70275;52.198;5.422;2023-07-13T04:47:20;101321.78;;;15.76;80.53
17438;BME280;70275;52.198;5.422;2023-07-13T04:49:52;101322.78;;;15.92;80.07
17438;BME280;70275;52.198;5.422;2023-07-13T04:52:21;101327.97;;;15.94;80.07
17438;BME280;70275;52.198;5.422;2023-07-13T04:54:50;101324.56;;;15.84;80.89
17438;BME280;70275;52.198;5.422;2023-07-13T04:57:19;101321.03;;;16.01;80.40
17438;BME280;70275;52.198;5.422;2023-07-13T04:59:49;101325.00;;;15.97;80.67
17438;BME280;70275;52.198;5.422;2023-07-13T05:02:19;101316.06;;;16.06;80.10
17438;BME280;70275;52.198;5.422;2023-07-13T05:04:51;101327.59;;;16.07;80.26
17438;BME280;70275;52.198;5.422;2023-07-13T05:07:22;101318.16;;;16.12;80.11
17438;BME280;70275;52.198;5.422;2023-07-13T05:09:51;101323.34;;;16.14;80.65
17438;BME280;70275;52.198;5.422;2023-07-13T05:12:21;101332.94;;;16.24;79.90
17438;BME280;70275;52.198;5.422;2023-07-13T05:14:50;101332.44;;;16.21;80.34
17438;BME280;70275;52.198;5.422;2023-07-13T05:17:19;101329.88;;;16.19;80.66
17438;BME280;70275;52.198;5.422;2023-07-13T05:19:51;101330.81;;;16.28;80.53
17438;BME280;70275;52.198;5.422;2023-07-13T05:22:20;101335.22;;;16.37;80.26
17438;BME280;70275;52.198;5.422;2023-07-13T05:24:49;101344.16;;;16.45;80.22
17438;BME280;70275;52.198;5.422;2023-07-13T05:27:19;101344.31;;;16.44;80.10
17438;BME280;70275;52.198;5.422;2023-07-13T05:29:48;101350.81;;;16.41;80.13
17438;BME280;70275;52.198;5.422;2023-07-13T05:32:18;101363.84;;;16.54;79.88
17438;BME280;70275;52.198;5.422;2023-07-13T05:34:47;101361.00;;;16.55;79.82
17438;BME280;70275;52.198;5.422;2023-07-13T05:37:19;101357.84;;;16.60;79.67
17438;BME280;70275;52.198;5.422;2023-07-13T05:39:48;101363.72;;;16.63;79.36
17438;BME280;70275;52.198;5.422;2023-07-13T05:42:17;101363.25;;;16.68;79.43
17438;BME280;70275;52.198;5.422;2023-07-13T05:44:46;101357.81;;;16.78;79.15
17438;BME280;70275;52.198;5.422;2023-07-13T05:47:16;101371.44;;;16.84;79.36
17438;BME280;70275;52.198;5.422;2023-07-13T05:49:45;101372.69;;;16.98;78.52
17438;BME280;70275;52.198;5.422;2023-07-13T05:52:14;101364.41;;;17.17;77.77
17438;BME280;70275;52.198;5.422;2023-07-13T05:54:46;101370.88;;;17.40;77.12
17438;BME280;70275;52.198;5.422;2023-07-13T05:57:15;101380.78;;;17.40;76.83
17438;BME280;70275;52.198;5.422;2023-07-13T05:59:44;101386.78;;;17.33;77.28
17438;BME280;70275;52.198;5.422;2023-07-13T06:02:14;101385.09;;;17.32;77.24
17438;BME280;70275;52.198;5.422;2023-07-13T06:04:43;101386.88;;;17.24;77.24
17438;BME280;70275;52.198;5.422;2023-07-13T06:07:12;101393.25;;;17.23;77.46
17438;BME280;70275;52.198;5.422;2023-07-13T06:09:44;101387.44;;;17.02;77.99
17438;BME280;70275;52.198;5.422;2023-07-13T06:12:13;101396.38;;;17.44;77.43
17438;BME280;70275;52.198;5.422;2023-07-13T06:14:43;101395.59;;;17.52;76.56
17438;BME280;70275;52.198;5.422;2023-07-13T06:17:12;101409.78;;;17.70;75.54
17438;BME280;70275;52.198;5.422;2023-07-13T06:19:41;101409.72;;;17.62;76.19
17438;BME280;70275;52.198;5.422;2023-07-13T06:22:11;101410.88;;;18.01;74.98
17438;BME280;70275;52.198;5.422;2023-07-13T06:24:40;101404.28;;;17.87;75.36
17438;BME280;70275;52.198;5.422;2023-07-13T06:27:12;101411.25;;;18.14;74.52
17438;BME280;70275;52.198;5.422;2023-07-13T06:29:42;101411.53;;;18.03;75.08
17438;BME280;70275;52.198;5.422;2023-07-13T06:32:11;101412.16;;;17.81;75.65
17438;BME280;70275;52.198;5.422;2023-07-13T06:34:40;101415.53;;;17.91;75.33
17438;BME280;70275;52.198;5.422;2023-07-13T06:37:09;101415.41;;;18.09;74.99
17438;BME280;70275;52.198;5.422;2023-07-13T06:39:39;101417.31;;;18.40;74.29
17438;BME280;70275;52.198;5.422;2023-07-13T06:42:11;101408.75;;;18.45;73.60
17438;BME280;70275;52.198;5.422;2023-07-13T06:44:40;101423.44;;;18.58;72.63
17438;BME280;70275;52.198;5.422;2023-07-13T06:47:09;101414.91;;;19.50;69.80
17438;BME280;70275;52.198;5.422;2023-07-13T06:49:38;101408.38;;;19.28;69.98
17438;BME280;70275;52.198;5.422;2023-07-13T06:52:07;101408.44;;;19.12;70.77
17438;BME280;70275;52.198;5.422;2023-07-13T06:54:36;101404.59;;;18.83;71.81
17438;BME280;70275;52.198;5.422;2023-07-13T06:57:06;101408.47;;;18.88;71.73
17438;BME280;70275;52.198;5.422;2023-07-13T06:59:38;101414.00;;;18.87;71.58
17438;BME280;70275;52.198;5.422;2023-07-13T07:02:10;101421.03;;;19.04;70.75
17438;BME280;70275;52.198;5.422;2023-07-13T07:04:39;101429.22;;;19.34;70.09
17438;BME280;70275;52.198;5.422;2023-07-13T07:07:09;101434.25;;;19.37;70.10
17438;BME280;70275;52.198;5.422;2023-07-13T07:09:38;101437.69;;;19.70;68.93
17438;BME280;70275;52.198;5.422;2023-07-13T07:12:08;101436.81;;;19.78;68.47
17438;BME280;70275;52.198;5.422;2023-07-13T07:14:40;101444.19;;;19.21;70.25
17438;BME280;70275;52.198;5.422;2023-07-13T07:17:09;101437.97;;;19.12;70.36
17438;BME280;70275;52.198;5.422;2023-07-13T07:19:38;101427.91;;;19.14;70.54
17438;BME280;70275;52.198;5.422;2023-07-13T07:22:08;101442.19;;;19.15;70.27
17438;BME280;70275;52.198;5.422;2023-07-13T07:24:37;101440.19;;;18.93;70.84
17438;BME280;70275;52.198;5.422;2023-07-13T07:27:06;101450.94;;;18.77;71.80
17438;BME280;70275;52.198;5.422;2023-07-13T07:29:35;101464.44;;;18.35;73.94
17438;BME280;70275;52.198;5.422;2023-07-13T07:32:08;101474.06;;;17.95;75.73
17438;BME280;70275;52.198;5.422;2023-07-13T07:34:39;101459.19;;;17.67;78.49
17438;BME280;70275;52.198;5.422;2023-07-13T07:37:13;101483.06;;;17.86;78.41
17438;BME280;70275;52.198;5.422;2023-07-13T07:39:43;101472.59;;;17.67;78.30
17438;BME280;70275;52.198;5.422;2023-07-13T07:42:12;101459.78;;;17.61;78.23
17438;BME280;70275;52.198;5.422;2023-07-13T07:44:42;101459.94;;;17.85;79.07
17438;BME280;70275;52.198;5.422;2023-07-13T07:47:13;101460.00;;;18.01;76.64
17438;BME280;70275;52.198;5.422;2023-07-13T07:49:43;101460.38;;;18.23;75.36
17438;BME280;70275;52.198;5.422;2023-07-13T07:52:12;101452.94;;;18.50;75.20
17438;BME280;70275;52.198;5.422;2023-07-13T07:54:41;101455.44;;;18.52;74.78
17438;BME280;70275;52.198;5.422;2023-07-13T07:57:10;101450.75;;;18.78;73.35
17438;BME280;70275;52.198;5.422;2023-07-13T07:59:39;101445.41;;;18.70;74.91
17438;BME280;70275;52.198;5.422;2023-07-13T08:02:13;101442.38;;;18.65;74.29
17438;BME280;70275;52.198;5.422;2023-07-13T08:04:42;101450.59;;;18.71;74.96
17438;BME280;70275;52.198;5.422;2023-07-13T08:07:11;101449.44;;;18.74;74.43
17438;BME280;70275;52.198;5.422;2023-07-13T08:09:41;101447.75;;;18.97;75.25
17438;BME280;70275;52.198;5.422;2023-07-13T08:12:10;101444.03;;;19.06;73.79
17438;BME280;70275;52.198;5.422;2023-07-13T08:14:39;101444.34;;;19.19;74.00
17438;BME280;70275;52.198;5.422;2023-07-13T08:17:08;101455.25;;;19.26;73.80
17438;BME280;70275;52.198;5.422;2023-07-13T08:19:40;101445.94;;;19.69;72.46
17438;BME280;70275;52.198;5.422;2023-07-13T08:22:09;101433.94;;;19.32;72.54
17438;BME280;70275;52.198;5.422;2023-07-13T08:24:39;101448.91;;;19.19;73.14
17438;BME280;70275;52.198;5.422;2023-07-13T08:27:08;101444.84;;;19.39;72.65
17438;BME280;70275;52.198;5.422;2023-07-13T08:29:37;101446.47;;;19.64;70.98
17438;BME280;70275;52.198;5.422;2023-07-13T08:32:08;101454.34;;;19.74;69.04
17438;BME280;70275;52.198;5.422;2023-07-13T08:34:40;101443.63;;;19.96;66.70
17438;BME280;70275;52.198;5.422;2023-07-13T08:37:10;101442.34;;;20.23;65.86
17438;BME280;70275;52.198;5.422;2023-07-13T08:39:39;101442.72;;;20.88;65.58
17438;BME280;70275;52.198;5.422;2023-07-13T08:42:26;101452.47;;;20.66;63.63
17438;BME280;70275;52.198;5.422;2023-07-13T08:45:08;101453.81;;;19.78;67.82
17438;BME280;70275;52.198;5.422;2023-07-13T08:47:49;101455.78;;;18.49;74.45
17438;BME280;70275;52.198;5.422;2023-07-13T08:50:31;101460.66;;;17.95;77.43
17438;BME280;70275;52.198;5.422;2023-07-13T08:53:02;101455.94;;;17.97;78.26
17438;BME280;70275;52.198;5.422;2023-07-13T08:55:35;101459.38;;;17.74;78.21
17438;BME280;70275;52.198;5.422;2023-07-13T08:58:12;101478.81;;;17.50;78.04
17438;BME280;70275;52.198;5.422;2023-07-13T09:00:55;101475.19;;;17.33;76.19
17438;BME280;70275;52.198;5.422;2023-07-13T09:03:36;101474.50;;;17.31;75.39
17438;BME280;70275;52.198;5.422;2023-07-13T09:06:12;101477.91;;;17.16;75.88
17438;BME280;70275;52.198;5.422;2023-07-13T09:08:55;101479.97;;;17.48;74.81
17438;BME280;70275;52.198;5.422;2023-07-13T09:11:42;101480.19;;;17.54;74.39
17438;BME280;70275;52.198;5.422;2023-07-13T09:14:37;101471.22;;;17.38;74.02
17438;BME280;70275;52.198;5.422;2023-07-13T09:17:17;101481.19;;;17.10;74.69
17438;BME280;70275;52.198;5.422;2023-07-13T09:19:54;101469.56;;;17.19;75.12
17438;BME280;70275;52.198;5.422;2023-07-13T09:22:33;101476.22;;;17.58;74.93
17438;BME280;70275;52.198;5.422;2023-07-13T09:25:18;101481.44;;;18.01;74.43
17438;BME280;70275;52.198;5.422;2023-07-13T09:27:54;101485.50;;;18.14;73.61
17438;BME280;70275;52.198;5.422;2023-07-13T09:30:37;101484.06;;;17.85;73.93
17438;BME280;70275;52.198;5.422;2023-07-13T09:33:11;101496.19;;;17.97;75.33
17438;BME280;70275;52.198;5.422;2023-07-13T09:35:40;101485.34;;;17.73;75.74
17438;BME280;70275;52.198;5.422;2023-07-13T09:38:18;101494.50;;;17.63;76.59
17438;BME280;70275;52.198;5.422;2023-07-13T09:41:11;101488.13;;;17.64;76.16
17438;BME280;70275;52.198;5.422;2023-07-13T09:44:01;101482.25;;;17.60;76.88
17438;BME280;70275;52.198;5.422;2023-07-13T09:46:31;101508.50;;;17.82;77.74
17438;BME280;70275;52.198;5.422;2023-07-13T09:49:00;101506.84;;;17.81;77.53
17438;BME280;70275;52.198;5.422;2023-07-13T09:51:29;101506.38;;;17.60;78.71
17438;BME280;70275;52.198;5.422;2023-07-13T09:54:01;101513.13;;;17.21;80.61
17438;BME280;70275;52.198;5.422;2023-07-13T09:56:31;101525.31;;;16.98;81.99
17438;BME280;70275;52.198;5.422;2023-07-13T09:59:01;101522.63;;;16.62;80.37
17438;BME280;70275;52.198;5.422;2023-07-13T10:01:36;101513.72;;;16.44;80.04
17438;BME280;70275;52.198;5.422;2023-07-13T10:04:12;101516.34;;;16.72;81.58
17438;BME280;70275;52.198;5.422;2023-07-13T10:06:42;101521.00;;;17.48;80.28
17438;BME280;70275;52.198;5.422;2023-07-13T10:09:17;101518.03;;;17.77;77.63
17438;BME280;70275;52.198;5.422;2023-07-13T10:11:46;101514.97;;;17.46;74.82
17438;BME280;70275;52.198;5.422;2023-07-13T10:14:22;101515.19;;;17.78;75.08
17438;BME280;70275;52.198;5.422;2023-07-13T10:16:58;101516.47;;;18.42;75.62
17438;BME280;70275;52.198;5.422;2023-07-13T10:19:32;101516.56;;;18.82;74.20
17438;BME280;70275;52.198;5.422;2023-07-13T10:22:20;101526.66;;;19.45;72.53
17438;BME280;70275;52.198;5.422;2023-07-13T10:24:55;101532.75;;;19.93;72.63
17438;BME280;70275;52.198;5.422;2023-07-13T10:27:34;101532.69;;;19.63;68.88
17438;BME280;70275;52.198;5.422;2023-07-13T10:30:14;101528.50;;;19.28;71.59
17438;BME280;70275;52.198;5.422;2023-07-13T10:32:47;101532.19;;;19.67;70.09
17438;BME280;70275;52.198;5.422;2023-07-13T10:35:20;101537.22;;;20.25;70.44
17438;BME280;70275;52.198;5.422;2023-07-13T10:37:54;101539.75;;;20.19;71.06
17438;BME280;70275;52.198;5.422;2023-07-13T10:40:34;101540.75;;;20.18;69.92
17438;BME280;70275;52.198;5.422;2023-07-13T10:43:13;101539.84;;;20.41;70.27
17438;BME280;70275;52.198;5.422;2023-07-13T10:45:46;101535.28;;;20.42;70.10
17438;BME280;70275;52.198;5.422;2023-07-13T10:48:18;101538.53;;;20.21;70.02
17438;BME280;70275;52.198;5.422;2023-07-13T10:50:53;101547.72;;;20.73;69.08
17438;BME280;70275;52.198;5.422;2023-07-13T10:53:30;101532.22;;;20.75;66.82
17438;BME280;70275;52.198;5.422;2023-07-13T10:56:05;101527.38;;;20.94;67.83
17438;BME280;70275;52.198;5.422;2023-07-13T10:58:38;101529.69;;;21.05;65.67
17438;BME280;70275;52.198;5.422;2023-07-13T11:01:13;101537.69;;;21.50;64.94
17438;BME280;70275;52.198;5.422;2023-07-13T11:03:54;101550.88;;;21.08;65.73
17438;BME280;70275;52.198;5.422;2023-07-13T11:06:39;101564.72;;;21.05;67.04
17438;BME280;70275;52.198;5.422;2023-07-13T11:09:37;101580.44;;;19.61;72.87
17438;BME280;70275;52.198;5.422;2023-07-13T11:15:12;101588.03;;;17.13;78.41
17438;BME280;70275;52.198;5.422;2023-07-13T11:17:51;101572.50;;;17.16;76.38
17438;BME280;70275;52.198;5.422;2023-07-13T11:20:37;101550.44;;;17.66;76.48
17438;BME280;70275;52.198;5.422;2023-07-13T11:23:26;101570.63;;;18.95;74.65
17438;BME280;70275;52.198;5.422;2023-07-13T11:25:57;101571.00;;;19.32;72.92
17438;BME280;70275;52.198;5.422;2023-07-13T11:28:31;101562.28;;;19.47;72.80
17438;BME280;70275;52.198;5.422;2023-07-13T11:31:13;101570.16;;;19.32;72.47
17438;BME280;70275;52.198;5.422;2023-07-13T11:33:56;101560.91;;;19.34;73.93
17438;BME280;70275;52.198;5.422;2023-07-13T11:36:37;101560.34;;;19.95;72.49
17438;BME280;70275;52.198;5.422;2023-07-13T11:39:18;101554.91;;;19.49;74.88
17438;BME280;70275;52.198;5.422;2023-07-13T11:41:53;101559.56;;;19.55;73.73
17438;BME280;70275;52.198;5.422;2023-07-13T11:44:28;101560.56;;;19.62;72.41
17438;BME280;70275;52.198;5.422;2023-07-13T11:47:00;101568.53;;;20.10;71.22
17438;BME280;70275;52.198;5.422;2023-07-13T11:49:44;101572.09;;;20.80;69.15
17438;BME280;70275;52.198;5.422;2023-07-13T11:52:17;101582.34;;;20.85;69.05
17438;BME280;70275;52.198;5.422;2023-07-13T11:54:51;101580.13;;;22.23;67.33
17438;BME280;70275;52.198;5.422;2023-07-13T11:57:27;101565.91;;;21.62;70.06
17438;BME280;70275;52.198;5.422;2023-07-13T12:00:03;101577.94;;;21.37;68.25
17438;BME280;70275;52.198;5.422;2023-07-13T12:02:38;101579.59;;;20.93;67.67
17438;BME280;70275;52.198;5.422;2023-07-13T12:05:13;101570.56;;;20.86;67.67
17438;BME280;70275;52.198;5.422;2023-07-13T12:07:44;101575.84;;;20.71;67.90
17438;BME280;70275;52.198;5.422;2023-07-13T12:10:20;101566.75;;;20.72;65.64
17438;BME280;70275;52.198;5.422;2023-07-13T12:12:55;101565.41;;;20.99;64.69
17438;BME280;70275;52.198;5.422;2023-07-13T12:15:37;101561.84;;;20.75;65.14
17438;BME280;70275;52.198;5.422;2023-07-13T12:18:14;101574.16;;;22.77;62.27
17438;BME280;70275;52.198;5.422;2023-07-13T12:20:46;101561.22;;;21.93;61.11
17438;BME280;70275;52.198;5.422;2023-07-13T12:23:25;101570.81;;;21.21;62.41
17438;BME280;70275;52.198;5.422;2023-07-13T12:25:55;101563.66;;;21.88;62.34
17438;BME280;70275;52.198;5.422;2023-07-13T12:28:34;101566.78;;;21.40;60.69
17438;BME280;70275;52.198;5.422;2023-07-13T12:31:23;101573.59;;;21.88;58.98
17438;BME280;70275;52.198;5.422;2023-07-13T12:34:02;101567.69;;;22.57;57.43
17438;BME280;70275;52.198;5.422;2023-07-13T12:36:35;101576.84;;;22.92;57.08
17438;BME280;70275;52.198;5.422;2023-07-13T12:39:15;101576.34;;;21.80;57.78
17438;BME280;70275;52.198;5.422;2023-07-13T12:41:46;101580.19;;;22.29;58.64
17438;BME280;70275;52.198;5.422;2023-07-13T12:44:18;101576.13;;;23.26;53.89
17438;BME280;70275;52.198;5.422;2023-07-13T12:47:03;101576.59;;;23.78;53.32
17438;BME280;70275;52.198;5.422;2023-07-13T12:49:43;101566.13;;;22.84;53.70
17438;BME280;70275;52.198;5.422;2023-07-13T12:52:21;101561.63;;;23.12;52.82
17438;BME280;70275;52.198;5.422;2023-07-13T12:54:55;101576.25;;;24.69;50.72
17438;BME280;70275;52.198;5.422;2023-07-13T12:57:26;101567.25;;;23.81;53.77
17438;BME280;70275;52.198;5.422;2023-07-13T12:59:56;101570.59;;;24.17;50.56
17438;BME280;70275;52.198;5.422;2023-07-13T13:02:32;101565.75;;;23.29;53.01
17438;BME280;70275;52.198;5.422;2023-07-13T13:05:03;101568.44;;;22.66;53.17
17438;BME280;70275;52.198;5.422;2023-07-13T13:07:33;101575.47;;;23.03;54.96
17438;BME280;70275;52.198;5.422;2023-07-13T13:10:12;101571.41;;;24.58;50.91
17438;BME280;70275;52.198;5.422;2023-07-13T13:12:41;101577.00;;;25.11;49.59
17438;BME280;70275;52.198;5.422;2023-07-13T13:15:11;101583.91;;;25.13;48.79
17438;BME280;70275;52.198;5.422;2023-07-13T13:17:45;101586.50;;;23.65;52.31
17438;BME280;70275;52.198;5.422;2023-07-13T13:20:16;101580.47;;;23.69;51.36